Big Laurel, Kentucky
Current Conditions -  °F | °C
As of 1:55 PM on Thursday 23 Oct 2014 (Local Time) from KI35 Reporting Station
Clear Clear  
Wind Chill: 59°   Ceiling: Unl
Heat Index: 59°   Visibility: 10mi
Dew Point: 37°   Wind: 5mph
Humidity: 45%   Direction: 70°ENE
Pressure: 30.16"   Gusts: NA
Location:  36.98°N, 83.22°W
Report Text: KI35 231755Z AUTO 07004KT 10SM CLR 15/03 A3016 RMK AO1
Loading
Personal Weather Stations






























Interactive Weather Map
Tropical Storm Tracking
New forecast layout! Learn more

10-Day Weather Forecast

Advertisements
Track Severe Weather on mobile